Time;durP1;ratioP1;P1;durP2;ratioP2;P2;SDS_P1;SDS_P2;PMS_P1;PMS_P2;Temp;Humidity;BMP_temperature;BMP_pressure;BME280_temperature;BME280_humidity;BME280_pressure;Samples;Min_cycle;Max_cycle;Signal;HPM_P1;HPM_P2
2021/08/22 00:00:40;;;;;;;10.98;6.57;;;;;;;19.38;64.02;99733.63;10443670;28;20566;-67
2021/08/22 00:05:42;;;;;;;11.02;6.90;;;;;;;19.37;63.80;99737.28;10437472;28;20041;-67
2021/08/22 00:10:44;;;;;;;11.63;6.68;;;;;;;19.32;63.77;99744.84;10428452;28;20132;-67
2021/08/22 00:15:46;;;;;;;11.30;6.90;;;;;;;19.15;63.54;99747.50;10429663;28;20080;-67
2021/08/22 00:20:48;;;;;;;11.55;7.63;;;;;;;18.88;64.29;99742.22;10437286;28;20238;-67
2021/08/22 00:25:50;;;;;;;14.48;9.20;;;;;;;18.68;65.04;99744.16;10440982;28;20064;-67
2021/08/22 00:30:52;;;;;;;11.80;7.38;;;;;;;18.67;65.25;99735.34;10442185;28;20474;-67
2021/08/22 00:35:55;;;;;;;11.90;7.00;;;;;;;18.74;65.48;99743.56;10443277;28;20080;-67
2021/08/22 00:40:56;;;;;;;15.68;7.45;;;;;;;18.77;65.87;99753.03;10442308;28;20119;-67
2021/08/22 00:45:58;;;;;;;11.32;7.10;;;;;;;18.76;65.78;99738.09;10443302;28;20095;-67
2021/08/22 00:51:00;;;;;;;12.68;7.68;;;;;;;18.90;65.45;99738.44;10425921;28;20045;-67
2021/08/22 00:56:04;;;;;;;11.05;7.40;;;;;;;18.86;65.54;99750.31;10443218;28;20135;-68
2021/08/22 01:01:13;;;;;;;10.93;6.00;;;;;;;18.82;65.44;99761.34;10443508;28;20040;-67
2021/08/22 01:06:41;;;;;;;12.00;6.47;;;;;;;18.57;66.49;99803.44;10441857;28;20074;-67
2021/08/22 01:11:44;;;;;;;10.18;6.57;;;;;;;18.73;66.43;99833.78;10443709;28;20134;-67
2021/08/22 01:16:53;;;;;;;10.20;5.78;;;;;;;18.74;66.25;99806.28;10442358;28;20484;-68
2021/08/22 01:21:58;;;;;;;6.72;4.53;;;;;;;18.95;65.30;99814.84;10406899;28;20471;-68
2021/08/22 01:27:01;;;;;;;20.92;5.72;;;;;;;18.98;64.98;99825.97;10440699;28;20721;-67
2021/08/22 01:32:03;;;;;;;12.00;4.65;;;;;;;18.55;66.03;99818.63;10442542;28;20084;-67
2021/08/22 01:37:05;;;;;;;17.50;6.95;;;;;;;18.16;67.89;99800.31;10445129;28;20095;-67
2021/08/22 01:42:09;;;;;;;11.68;4.50;;;;;;;18.24;67.66;99787.25;10451177;28;20076;-68
2021/08/22 01:47:11;;;;;;;9.48;5.50;;;;;;;18.41;67.62;99794.44;10449784;28;20124;-68
2021/08/22 01:52:13;;;;;;;8.52;4.82;;;;;;;18.50;67.21;99790.94;10438618;28;20080;-68
2021/08/22 01:57:15;;;;;;;10.07;4.60;;;;;;;18.56;67.60;99793.00;10449330;28;20067;-67
2021/08/22 02:02:17;;;;;;;7.53;4.57;;;;;;;18.58;67.43;99809.56;10452029;28;20083;-67
2021/08/22 02:07:22;;;;;;;6.75;4.65;;;;;;;18.32;67.48;99796.13;10472082;28;20052;-67
2021/08/22 02:12:23;;;;;;;10.68;5.85;;;;;;;18.05;68.02;99803.13;10457108;28;20568;-67
2021/08/22 02:17:28;;;;;;;8.38;5.75;;;;;;;18.08;68.28;99800.19;10456763;28;20136;-67
2021/08/22 02:22:32;;;;;;;8.85;5.90;;;;;;;18.33;68.02;99808.41;10457333;28;20132;-67
2021/08/22 02:27:34;;;;;;;10.60;6.18;;;;;;;18.44;67.56;99802.91;10455330;28;20087;-67
2021/08/22 02:32:36;;;;;;;12.65;6.00;;;;;;;18.49;67.57;99802.47;10456282;28;20135;-67
2021/08/22 02:37:38;;;;;;;10.85;6.88;;;;;;;18.49;67.72;99791.91;10452590;28;20088;-67
2021/08/22 02:42:39;;;;;;;11.07;6.82;;;;;;;18.50;67.48;99794.38;10452067;28;20133;-67
2021/08/22 02:47:41;;;;;;;12.07;6.65;;;;;;;18.42;67.36;99786.34;10455259;28;20528;-67
2021/08/22 02:52:43;;;;;;;11.23;6.13;;;;;;;18.16;68.07;99784.44;10454851;28;20087;-67
2021/08/22 02:57:44;;;;;;;12.43;7.63;;;;;;;18.15;67.87;99783.63;10455543;28;20072;-67
2021/08/22 03:02:46;;;;;;;7.45;5.50;;;;;;;18.18;68.15;99782.50;10453426;28;20072;-67
2021/08/22 03:07:48;;;;;;;8.02;5.40;;;;;;;18.16;68.19;99773.84;10464467;28;20056;-67
2021/08/22 03:12:50;;;;;;;11.80;5.85;;;;;;;18.08;68.37;99773.72;10448393;28;20045;-68
2021/08/22 03:17:52;;;;;;;9.80;6.20;;;;;;;17.89;68.44;99784.38;10433031;28;20143;-67
2021/08/22 03:22:54;;;;;;;12.32;5.90;;;;;;;17.85;68.54;99773.25;10447616;28;20533;-68
2021/08/22 03:27:56;;;;;;;7.50;5.60;;;;;;;17.85;68.32;99770.59;10446334;28;20055;-67
2021/08/22 03:32:58;;;;;;;8.40;4.88;;;;;;;17.87;68.15;99773.09;10447368;28;20521;-67
2021/08/22 03:38:00;;;;;;;11.02;5.88;;;;;;;17.87;68.43;99765.16;10437023;28;20069;-67
2021/08/22 03:43:02;;;;;;;9.32;6.50;;;;;;;17.85;68.35;99774.06;10417747;28;20168;-67
2021/08/22 03:48:04;;;;;;;9.07;5.85;;;;;;;17.74;68.79;99771.56;10426703;28;20268;-67
2021/08/22 03:53:05;;;;;;;10.10;7.60;;;;;;;17.83;68.71;99772.53;10446578;28;20132;-67
2021/08/22 03:58:07;;;;;;;8.18;5.32;;;;;;;17.96;68.24;99773.06;10444071;28;20083;-67
2021/08/22 04:03:09;;;;;;;14.43;8.02;;;;;;;18.08;68.74;99776.38;10446081;28;20099;-67
2021/08/22 04:08:11;;;;;;;9.05;6.15;;;;;;;18.09;68.31;99773.59;10444700;28;20057;-67
2021/08/22 04:13:13;;;;;;;15.95;5.47;;;;;;;18.03;68.18;99774.19;10460604;28;20072;-67
2021/08/22 04:18:16;;;;;;;8.82;5.93;;;;;;;18.00;68.38;99770.97;10444094;28;20096;-67
2021/08/22 04:23:18;;;;;;;8.05;6.28;;;;;;;18.12;68.26;99785.69;10445735;28;20132;-67
2021/08/22 04:28:20;;;;;;;8.63;6.03;;;;;;;18.23;68.55;99777.63;10444646;28;20072;-67
2021/08/22 04:33:22;;;;;;;10.15;7.32;;;;;;;18.22;68.29;99783.91;10445319;28;20098;-67
2021/08/22 04:38:24;;;;;;;11.15;6.85;;;;;;;18.18;68.37;99788.59;10444967;28;20151;-67
2021/08/22 04:43:26;;;;;;;9.32;6.95;;;;;;;18.05;68.91;99792.56;10445315;28;20088;-67
2021/08/22 04:48:27;;;;;;;8.90;4.50;;;;;;;18.01;69.04;99807.03;10458835;28;20131;-67
2021/08/22 04:53:29;;;;;;;9.90;4.60;;;;;;;17.91;68.83;99812.34;10444515;28;20477;-67
2021/08/22 04:58:31;;;;;;;6.53;4.22;;;;;;;17.88;69.03;99820.56;10443588;28;20140;-67
2021/08/22 05:03:33;;;;;;;10.45;4.70;;;;;;;18.04;68.81;99822.63;10444354;28;20048;-67
2021/08/22 05:08:35;;;;;;;10.02;4.10;;;;;;;18.16;68.74;99821.47;10443885;28;20319;-67
2021/08/22 05:13:37;;;;;;;6.70;4.78;;;;;;;18.37;68.26;99819.53;10452688;28;20089;-67
2021/08/22 05:18:38;;;;;;;6.75;4.45;;;;;;;18.54;67.92;99824.09;10430917;28;20096;-67
2021/08/22 05:23:40;;;;;;;7.00;4.45;;;;;;;18.59;67.62;99819.19;10452188;28;20048;-67
2021/08/22 05:28:42;;;;;;;6.57;4.55;;;;;;;18.61;67.30;99825.16;10431197;28;20076;-69
2021/08/22 05:33:44;;;;;;;9.75;5.80;;;;;;;18.67;67.20;99838.66;10452284;28;20049;-67
2021/08/22 05:38:47;;;;;;;8.10;4.10;;;;;;;18.76;66.93;99839.63;10450823;28;20551;-67
2021/08/22 05:43:49;;;;;;;12.13;5.70;;;;;;;18.92;66.69;99831.88;10452577;28;20049;-67
2021/08/22 05:48:51;;;;;;;6.72;3.88;;;;;;;19.17;66.31;99839.19;10450616;28;20053;-67
2021/08/22 05:53:53;;;;;;;6.43;3.78;;;;;;;19.14;66.24;99852.72;10435811;28;20041;-67
2021/08/22 05:58:54;;;;;;;6.97;3.85;;;;;;;19.08;66.29;99852.47;10450137;28;20572;-67
2021/08/22 06:03:56;;;;;;;6.57;3.47;;;;;;;19.19;66.12;99852.28;10450842;28;20045;-67
2021/08/22 06:08:58;;;;;;;8.00;3.75;;;;;;;19.29;66.02;99859.19;10446325;28;20072;-67
2021/08/22 06:14:00;;;;;;;7.97;3.38;;;;;;;19.30;65.81;99871.47;10449884;28;20064;-67
2021/08/22 06:19:01;;;;;;;5.70;4.80;;;;;;;19.28;65.58;99876.06;10449321;28;20080;-67
2021/08/22 06:24:04;;;;;;;10.93;5.10;;;;;;;19.47;64.92;99885.75;10427590;28;20090;-67
2021/08/22 06:29:06;;;;;;;8.15;3.42;;;;;;;19.64;64.51;99886.75;10428916;28;20140;-67
2021/08/22 06:34:09;;;;;;;3.80;2.70;;;;;;;19.71;63.96;99893.09;10441130;28;20098;-67
2021/08/22 06:39:12;;;;;;;6.78;2.92;;;;;;;19.75;63.33;99892.66;10448668;28;20087;-66
2021/08/22 06:44:15;;;;;;;5.13;3.40;;;;;;;19.79;63.61;99885.22;10449365;28;20049;-67
2021/08/22 06:49:16;;;;;;;8.05;3.40;;;;;;;19.89;63.13;99881.56;10435223;28;20129;-67
2021/08/22 06:54:18;;;;;;;7.43;4.72;;;;;;;20.13;62.28;99867.66;10422166;28;20128;-67
2021/08/22 06:59:20;;;;;;;10.18;4.90;;;;;;;20.50;62.08;99892.16;10443063;28;20083;-67
2021/08/22 07:04:22;;;;;;;7.07;4.63;;;;;;;20.71;61.18;99891.84;10463352;28;20493;-67
2021/08/22 07:09:23;;;;;;;5.70;4.25;;;;;;;20.62;60.82;99901.56;10446743;28;20053;-67
2021/08/22 07:14:25;;;;;;;7.38;4.85;;;;;;;20.53;61.12;99896.34;10432751;28;20137;-67
2021/08/22 07:19:28;;;;;;;6.90;3.80;;;;;;;20.19;61.63;99904.22;10447288;28;20056;-67
2021/08/22 07:24:30;;;;;;;6.63;3.85;;;;;;;20.10;61.77;99902.47;10448109;28;20076;-67
2021/08/22 07:29:31;;;;;;;5.63;3.05;;;;;;;20.02;61.96;99899.75;10462802;28;20110;-67
2021/08/22 07:34:33;;;;;;;5.43;3.20;;;;;;;20.05;61.83;99910.09;10439874;28;20081;-66
2021/08/22 07:39:35;;;;;;;5.82;2.80;;;;;;;20.11;61.35;99902.31;10428142;28;20084;-67
2021/08/22 07:44:37;;;;;;;8.50;3.70;;;;;;;20.25;61.29;99908.94;10446920;28;20053;-67
2021/08/22 07:49:39;;;;;;;8.20;3.50;;;;;;;20.32;61.26;99922.41;10433988;28;20107;-67
2021/08/22 07:54:40;;;;;;;12.15;3.47;;;;;;;20.31;61.08;99929.56;10452911;28;20567;-67
2021/08/22 07:59:42;;;;;;;5.45;2.80;;;;;;;20.45;60.90;99921.03;10436459;28;20103;-67
2021/08/22 08:04:51;;;;;;;4.53;3.05;;;;;;;20.64;60.69;99922.69;10444515;28;20077;-67
2021/08/22 08:09:55;;;;;;;5.65;3.30;;;;;;;20.70;60.64;99919.41;10428208;28;20063;-66
2021/08/22 08:14:57;;;;;;;7.22;3.28;;;;;;;20.68;60.04;99916.91;10440707;28;20073;-66
2021/08/22 08:19:59;;;;;;;6.28;3.08;;;;;;;20.77;59.74;99909.81;10446127;28;20932;-66
2021/08/22 08:25:02;;;;;;;6.30;3.25;;;;;;;20.79;59.28;99908.66;10444730;28;20045;-66
2021/08/22 08:30:04;;;;;;;5.53;3.35;;;;;;;20.91;59.05;99904.75;10439119;28;20536;-66
2021/08/22 08:35:11;;;;;;;4.53;3.15;;;;;;;21.19;57.89;99909.88;10439126;28;20079;-67
2021/08/22 08:40:17;;;;;;;5.78;3.30;;;;;;;21.70;57.14;99905.25;10439572;28;20080;-66
2021/08/22 08:45:33;;;;;;;7.13;4.25;;;;;;;22.58;54.43;99912.47;10445591;28;20125;-66
2021/08/22 08:50:56;;;;;;;3.92;1.92;;;;;;;23.31;52.76;99915.81;10411757;28;20049;-66
2021/08/22 08:56:02;;;;;;;3.38;1.98;;;;;;;23.57;52.32;99904.88;10428252;28;20386;-66
2021/08/22 09:01:04;;;;;;;4.38;2.10;;;;;;;23.79;51.89;99901.41;10439396;28;20136;-66
2021/08/22 09:06:49;;;;;;;4.68;1.92;;;;;;;24.07;48.90;99894.56;10442119;28;20106;-67
2021/08/22 09:12:44;;;;;;;5.90;3.47;;;;;;;23.72;50.82;99903.09;10406634;28;20075;-66
2021/08/22 09:18:23;;;;;;;5.07;3.10;;;;;;;24.39;49.27;99906.00;10348627;28;20142;-66
2021/08/22 09:24:02;;;;;;;5.43;3.08;;;;;;;24.95;47.85;99894.75;10427894;28;20180;-66
2021/08/22 09:29:41;;;;;;;4.03;2.40;;;;;;;24.58;47.62;99905.47;10425852;28;20570;-67
2021/08/22 09:34:48;;;;;;;6.13;4.00;;;;;;;24.92;48.04;99901.28;10423439;28;20080;-65
2021/08/22 09:40:23;;;;;;;5.28;3.85;;;;;;;25.56;45.08;99891.66;10427441;28;20514;-65
2021/08/22 09:45:52;;;;;;;5.53;4.10;;;;;;;25.11;46.13;99905.25;10437119;28;20136;-65
2021/08/22 09:51:46;;;;;;;6.23;4.20;;;;;;;24.09;48.42;99905.91;10412258;28;20046;-64
2021/08/22 09:57:25;;;;;;;8.95;4.45;;;;;;;22.95;51.90;99921.75;10428026;28;20158;-65
2021/08/22 10:02:33;;;;;;;6.63;4.30;;;;;;;21.79;55.56;99943.38;10413685;28;20083;-65
2021/08/22 10:07:53;;;;;;;8.43;5.15;;;;;;;20.99;57.00;99941.19;10435545;28;20161;-64
2021/08/22 10:12:55;;;;;;;8.48;4.78;;;;;;;20.73;58.07;99935.88;10429141;28;20111;-64
2021/08/22 10:17:57;;;;;;;6.38;5.30;;;;;;;20.41;59.37;99932.97;10424788;28;21001;-64
2021/08/22 10:22:59;;;;;;;7.20;3.65;;;;;;;19.99;58.97;99938.06;10446798;28;20071;-64
2021/08/22 10:28:03;;;;;;;7.50;3.63;;;;;;;19.99;59.24;99931.94;10448468;28;20123;-64
2021/08/22 10:33:05;;;;;;;4.50;2.85;;;;;;;20.02;59.36;99921.00;10427894;28;20045;-64
2021/08/22 10:38:24;;;;;;;5.63;2.95;;;;;;;21.07;57.72;99894.19;10438224;28;20455;-64
2021/08/22 10:43:26;;;;;;;4.70;2.58;;;;;;;21.92;55.51;99893.16;10433686;28;20065;-64
2021/08/22 10:48:27;;;;;;;4.45;2.83;;;;;;;21.99;54.59;99895.97;10443277;28;20124;-64
2021/08/22 10:53:37;;;;;;;2.88;1.80;;;;;;;21.80;55.29;99902.47;10437330;28;20110;-64
2021/08/22 10:59:04;;;;;;;4.25;2.03;;;;;;;21.65;56.15;99904.06;10458396;28;20489;-64
2021/08/22 11:04:13;;;;;;;2.50;1.73;;;;;;;21.57;56.13;99880.09;10443721;28;20108;-64
2021/08/22 11:09:32;;;;;;;2.30;1.50;;;;;;;21.97;54.72;99868.66;10439026;28;20141;-64
2021/08/22 11:14:34;;;;;;;4.00;1.70;;;;;;;22.23;54.96;99869.41;10448920;28;20048;-64
2021/08/22 11:19:36;;;;;;;3.42;1.90;;;;;;;21.95;56.03;99882.16;10444686;28;20131;-65
2021/08/22 11:24:51;;;;;;;2.83;1.75;;;;;;;21.66;56.83;99865.84;10446402;28;20132;-64
2021/08/22 11:30:05;;;;;;;4.88;1.52;;;;;;;21.38;56.42;99857.28;10446694;28;20052;-64
2021/08/22 11:35:15;;;;;;;3.17;1.73;;;;;;;21.41;57.24;99853.47;10462029;28;20136;-64
2021/08/22 11:40:21;;;;;;;3.42;1.75;;;;;;;22.18;56.14;99851.25;10446932;28;20081;-65
2021/08/22 11:45:28;;;;;;;2.88;1.67;;;;;;;22.18;55.78;99851.25;10446979;28;20076;-64
2021/08/22 11:50:32;;;;;;;2.90;1.70;;;;;;;22.34;55.45;99837.06;10444455;28;20053;-64
2021/08/22 11:55:40;;;;;;;3.88;1.98;;;;;;;22.47;55.11;99846.22;10429708;28;20556;-64
2021/08/22 12:00:47;;;;;;;3.33;1.58;;;;;;;22.44;54.70;99835.03;10446964;28;20139;-64
2021/08/22 12:06:07;;;;;;;5.25;1.70;;;;;;;22.53;55.04;99837.53;10445838;28;20051;-64
2021/08/22 12:11:11;;;;;;;4.35;1.80;;;;;;;22.53;54.55;99832.22;10439209;28;20128;-64
2021/08/22 12:16:28;;;;;;;3.15;1.90;;;;;;;22.59;54.03;99828.03;10436327;28;20049;-64
2021/08/22 12:21:33;;;;;;;2.97;1.95;;;;;;;22.80;53.38;99814.16;10442461;28;20060;-65
2021/08/22 12:26:35;;;;;;;2.45;1.52;;;;;;;23.05;52.64;99807.69;10446337;28;20041;-65
2021/08/22 12:31:38;;;;;;;4.10;2.20;;;;;;;23.77;52.27;99798.44;10437428;28;20103;-64
2021/08/22 12:36:42;;;;;;;3.50;2.05;;;;;;;24.27;49.61;99793.31;10437830;28;20049;-64
2021/08/22 12:41:52;;;;;;;3.35;1.85;;;;;;;24.32;49.11;99782.09;10441902;28;20060;-64
2021/08/22 12:46:58;;;;;;;4.25;2.38;;;;;;;24.14;50.43;99791.28;10431975;28;20076;-64
2021/08/22 12:52:03;;;;;;;3.60;2.08;;;;;;;24.09;49.68;99792.84;10435011;28;20136;-64
2021/08/22 12:57:05;;;;;;;4.03;1.95;;;;;;;23.70;49.96;99803.66;10444749;28;20478;-65
2021/08/22 13:02:07;;;;;;;5.15;2.60;;;;;;;23.72;50.09;99795.44;10433263;28;20120;-64
2021/08/22 13:07:09;;;;;;;5.72;2.28;;;;;;;23.67;49.56;99803.19;10444670;28;20499;-64
2021/08/22 13:12:11;;;;;;;3.17;1.77;;;;;;;23.78;49.54;99800.91;10443866;28;20088;-65
2021/08/22 13:17:13;;;;;;;3.63;2.22;;;;;;;23.77;49.32;99804.63;10430611;28;20545;-65
2021/08/22 13:22:15;;;;;;;2.97;1.80;;;;;;;24.22;48.86;99803.75;10442488;28;20055;-65
2021/08/22 13:27:17;;;;;;;4.75;2.38;;;;;;;24.37;48.39;99803.78;10442312;28;20497;-65
2021/08/22 13:32:19;;;;;;;3.13;1.70;;;;;;;24.48;48.13;99792.59;10413158;28;20111;-65
2021/08/22 13:37:21;;;;;;;3.88;1.70;;;;;;;24.73;47.34;99781.50;10435587;28;20493;-65
2021/08/22 13:42:24;;;;;;;4.70;2.45;;;;;;;24.74;45.65;99793.84;10448156;28;20131;-65
2021/08/22 13:47:26;;;;;;;3.85;2.05;;;;;;;24.45;46.08;99780.44;10451621;28;20091;-65
2021/08/22 13:52:28;;;;;;;3.65;1.90;;;;;;;24.96;45.49;99774.16;10446293;28;20133;-65
2021/08/22 13:57:30;;;;;;;4.45;2.08;;;;;;;24.90;44.38;99774.06;10428530;28;20137;-65
2021/08/22 14:02:33;;;;;;;3.47;2.05;;;;;;;24.45;43.05;99771.59;10469663;28;20574;-65
2021/08/22 14:07:35;;;;;;;3.03;1.80;;;;;;;24.40;43.20;99758.78;10455984;28;20059;-64
2021/08/22 14:12:39;;;;;;;4.28;1.70;;;;;;;24.42;42.25;99763.94;10442423;28;20102;-64
2021/08/22 14:17:41;;;;;;;4.13;1.90;;;;;;;24.07;42.63;99760.97;10456378;28;20099;-64
2021/08/22 14:22:43;;;;;;;4.50;2.00;;;;;;;24.13;43.10;99762.06;10457608;28;20516;-65
2021/08/22 14:27:49;;;;;;;3.38;1.67;;;;;;;23.83;43.47;99766.50;10445247;28;20059;-65
2021/08/22 14:32:50;;;;;;;3.45;1.95;;;;;;;23.69;43.97;99777.13;10449462;28;20086;-64
2021/08/22 14:37:53;;;;;;;3.80;2.03;;;;;;;23.74;43.44;99780.91;10441665;28;20516;-65
2021/08/22 14:42:55;;;;;;;4.75;2.42;;;;;;;23.60;43.14;99776.34;10447777;28;20444;-65
2021/08/22 14:47:57;;;;;;;4.53;2.20;;;;;;;24.33;42.23;99778.41;10457773;28;20103;-64
2021/08/22 14:52:59;;;;;;;3.67;1.85;;;;;;;24.49;39.96;99779.03;10472543;28;20072;-65
2021/08/22 14:58:01;;;;;;;4.18;2.35;;;;;;;24.91;39.29;99778.41;10468508;28;20123;-65
2021/08/22 15:03:03;;;;;;;4.25;2.30;;;;;;;25.43;38.44;99773.69;10475457;28;20131;-64
2021/08/22 15:08:05;;;;;;;6.75;2.35;;;;;;;25.42;38.01;99777.38;10459073;28;20083;-65
2021/08/22 15:13:07;;;;;;;5.70;2.15;;;;;;;25.13;38.01;99792.66;10468142;28;20095;-65
2021/08/22 15:18:09;;;;;;;3.88;2.20;;;;;;;25.19;38.47;99797.25;10449273;28;20136;-65
2021/08/22 15:23:11;;;;;;;3.72;2.00;;;;;;;25.09;39.17;99803.75;10448752;28;20132;-65
2021/08/22 15:28:13;;;;;;;5.00;2.10;;;;;;;24.79;38.49;99807.50;10463371;28;20107;-65
2021/08/22 15:33:15;;;;;;;4.00;2.17;;;;;;;24.88;38.61;99805.53;10475826;28;20084;-64
2021/08/22 15:38:17;;;;;;;3.78;2.20;;;;;;;24.67;38.95;99808.94;10449723;28;20144;-64
2021/08/22 15:43:22;;;;;;;4.35;2.00;;;;;;;24.13;39.63;99807.50;10438132;28;20551;-64
2021/08/22 15:48:24;;;;;;;3.63;1.95;;;;;;;23.76;40.25;99807.47;10444198;28;20053;-64
2021/08/22 15:53:25;;;;;;;5.00;2.30;;;;;;;24.00;39.92;99807.25;10443451;28;20132;-66
2021/08/22 15:58:27;;;;;;;3.90;2.13;;;;;;;24.03;40.15;99810.41;10446663;28;20135;-65
2021/08/22 16:03:29;;;;;;;3.60;1.85;;;;;;;23.61;40.55;99802.06;10443398;28;20112;-65
2021/08/22 16:08:31;;;;;;;4.13;1.80;;;;;;;23.21;41.26;99812.94;10445421;28;20084;-66
2021/08/22 16:13:32;;;;;;;4.50;2.17;;;;;;;22.97;41.60;99816.56;10437333;28;20072;-65
2021/08/22 16:18:34;;;;;;;4.18;1.90;;;;;;;22.64;42.97;99826.50;10427579;28;20051;-65
2021/08/22 16:23:36;;;;;;;6.65;2.35;;;;;;;22.46;44.26;99847.19;10436576;28;20136;-65
2021/08/22 16:28:38;;;;;;;6.55;2.35;;;;;;;21.95;48.93;99865.34;10421255;28;20557;-65
2021/08/22 16:33:40;;;;;;;6.53;2.33;;;;;;;21.37;51.77;99881.38;10440580;28;20128;-64
2021/08/22 16:38:41;;;;;;;6.70;2.20;;;;;;;21.33;51.94;99888.88;10444480;28;20080;-64
2021/08/22 16:43:43;;;;;;;5.53;2.53;;;;;;;21.25;53.52;99891.47;10443851;28;20120;-65
2021/08/22 16:48:45;;;;;;;5.70;2.30;;;;;;;21.78;53.14;99902.59;10445567;28;20080;-65
2021/08/22 16:53:46;;;;;;;4.90;2.50;;;;;;;21.92;52.86;99907.28;10439534;28;20079;-65
2021/08/22 16:58:48;;;;;;;3.90;2.10;;;;;;;21.89;52.48;99912.09;10444599;28;20164;-65
2021/08/22 17:03:50;;;;;;;3.60;2.22;;;;;;;21.68;53.63;99907.25;10440341;28;20077;-65
2021/08/22 17:08:52;;;;;;;4.38;2.30;;;;;;;21.39;54.75;99904.19;10448196;28;20124;-65
2021/08/22 17:13:53;;;;;;;4.57;2.47;;;;;;;21.09;55.34;99897.53;10453303;28;20107;-65
2021/08/22 17:18:55;;;;;;;4.18;2.30;;;;;;;20.84;56.39;99900.22;10436108;28;20869;-65
2021/08/22 17:23:57;;;;;;;5.45;3.10;;;;;;;20.55;56.72;99912.97;10419046;28;20644;-64
2021/08/22 17:29:01;;;;;;;7.70;4.53;;;;;;;20.26;57.86;99913.25;10449352;28;20452;-65
2021/08/22 17:34:04;;;;;;;7.57;3.50;;;;;;;19.95;58.50;99930.56;10450138;28;20076;-65
2021/08/22 17:39:06;;;;;;;6.60;3.08;;;;;;;19.82;58.21;99938.06;10450446;28;20522;-65
2021/08/22 17:44:08;;;;;;;8.27;2.85;;;;;;;19.71;59.38;99951.50;10449044;28;20135;-65
2021/08/22 17:49:10;;;;;;;5.88;2.40;;;;;;;19.45;59.46;99936.28;10450522;28;20081;-65
2021/08/22 17:54:11;;;;;;;7.07;2.58;;;;;;;18.91;60.98;99936.19;10449730;28;20444;-65
2021/08/22 17:59:13;;;;;;;6.45;2.78;;;;;;;18.85;62.44;99947.38;10433521;28;20048;-65
2021/08/22 18:04:15;;;;;;;5.55;2.70;;;;;;;18.91;62.55;99956.59;10446963;28;20999;-65
2021/08/22 18:09:17;;;;;;;5.90;2.50;;;;;;;18.96;62.35;99946.38;10424676;28;20138;-65
2021/08/22 18:14:19;;;;;;;9.00;2.40;;;;;;;18.76;62.40;99942.94;10445994;28;20056;-65
2021/08/22 18:19:21;;;;;;;5.90;2.50;;;;;;;18.75;62.15;99954.50;10448842;28;20485;-65
2021/08/22 18:24:23;;;;;;;6.10;2.80;;;;;;;18.24;63.43;99967.28;10450640;28;20107;-65
2021/08/22 18:29:24;;;;;;;4.45;2.20;;;;;;;17.79;63.75;99974.84;10445227;28;20148;-65
2021/08/22 18:34:27;;;;;;;6.18;2.50;;;;;;;17.61;64.03;99992.31;10450033;28;20057;-65
2021/08/22 18:39:29;;;;;;;4.90;2.10;;;;;;;17.37;64.09;99997.09;10449415;28;20045;-65
2021/08/22 18:44:30;;;;;;;6.63;2.30;;;;;;;17.36;64.27;100009.50;10439927;28;20471;-66
2021/08/22 18:49:34;;;;;;;7.00;2.50;;;;;;;17.58;64.87;100019.91;10425139;28;20125;-66
2021/08/22 18:54:35;;;;;;;8.50;2.78;;;;;;;17.70;65.15;100034.69;10454125;28;20049;-66
2021/08/22 18:59:37;;;;;;;7.97;2.85;;;;;;;17.80;65.57;100040.84;10460363;28;20052;-66
2021/08/22 19:04:39;;;;;;;6.38;3.10;;;;;;;17.83;65.63;100043.22;10472606;28;20689;-66
2021/08/22 19:09:41;;;;;;;4.78;2.78;;;;;;;17.90;66.12;100058.53;10449502;28;20540;-66
2021/08/22 19:14:44;;;;;;;7.25;3.13;;;;;;;17.93;65.86;100063.59;10449687;28;20398;-66
2021/08/22 19:19:46;;;;;;;7.93;3.05;;;;;;;17.98;66.03;100082.53;10424059;28;20092;-66
2021/08/22 19:24:48;;;;;;;7.88;3.00;;;;;;;17.96;66.46;100095.06;10428245;28;20140;-66
2021/08/22 19:29:49;;;;;;;7.05;3.10;;;;;;;18.06;66.40;100099.41;10448572;28;20143;-66
2021/08/22 19:34:51;;;;;;;7.63;2.70;;;;;;;18.08;66.07;100115.16;10437585;28;20044;-66
2021/08/22 19:39:54;;;;;;;9.70;2.90;;;;;;;18.14;65.15;100115.44;10444340;28;20069;-66
2021/08/22 19:44:57;;;;;;;5.60;2.88;;;;;;;18.18;65.81;100114.22;10425420;28;20063;-66
2021/08/22 19:49:59;;;;;;;8.02;3.65;;;;;;;18.21;65.80;100110.50;10446627;28;20133;-66
2021/08/22 19:55:00;;;;;;;7.13;3.38;;;;;;;18.16;65.94;100117.94;10447350;28;20081;-66
2021/08/22 20:00:04;;;;;;;5.32;2.88;;;;;;;18.11;66.25;100120.19;10437447;28;20140;-66
2021/08/22 20:05:06;;;;;;;7.75;2.95;;;;;;;18.07;66.20;100119.63;10445026;28;20493;-66
2021/08/22 20:10:09;;;;;;;7.68;3.40;;;;;;;17.96;66.15;100121.50;10432990;28;20096;-66
2021/08/22 20:15:12;;;;;;;8.80;3.25;;;;;;;17.92;65.98;100126.25;10443654;28;20080;-66
2021/08/22 20:20:14;;;;;;;6.43;3.05;;;;;;;17.91;66.36;100124.59;10423992;28;20040;-66
2021/08/22 20:25:16;;;;;;;5.25;3.08;;;;;;;17.91;66.33;100111.34;10421001;28;20508;-66
2021/08/22 20:30:19;;;;;;;7.90;3.40;;;;;;;17.85;66.62;100118.00;10435103;28;20107;-66
2021/08/22 20:35:22;;;;;;;4.45;2.40;;;;;;;17.72;66.19;100124.50;10433703;28;20053;-66
2021/08/22 20:40:25;;;;;;;6.65;3.03;;;;;;;17.63;66.90;100120.81;10445139;28;20052;-66
2021/08/22 20:45:27;;;;;;;4.65;2.65;;;;;;;17.61;66.97;100128.06;10438984;28;20049;-66
2021/08/22 20:50:29;;;;;;;5.63;3.22;;;;;;;17.52;66.75;100131.50;10444749;28;20135;-66
2021/08/22 20:55:30;;;;;;;5.78;2.70;;;;;;;17.40;67.04;100132.53;10458887;28;20096;-66
2021/08/22 21:00:33;;;;;;;6.15;2.80;;;;;;;17.24;67.51;100129.47;10443885;28;20103;-66
2021/08/22 21:05:35;;;;;;;6.85;2.35;;;;;;;16.97;67.73;100132.63;10443973;28;20124;-66
2021/08/22 21:10:37;;;;;;;7.78;2.60;;;;;;;16.89;67.84;100131.56;10425606;28;20061;-66
2021/08/22 21:15:39;;;;;;;5.03;2.28;;;;;;;16.85;67.65;100130.16;10444210;28;20095;-66
2021/08/22 21:20:41;;;;;;;4.57;2.30;;;;;;;16.89;67.61;100134.22;10443781;28;20049;-66
2021/08/22 21:25:44;;;;;;;5.65;2.50;;;;;;;16.96;67.08;100132.72;10417624;28;20045;-66
2021/08/22 21:30:46;;;;;;;5.18;2.22;;;;;;;16.83;67.23;100134.72;10418592;28;20084;-67
2021/08/22 21:35:48;;;;;;;4.82;2.33;;;;;;;16.66;67.63;100129.97;10444118;28;20052;-66
2021/08/22 21:40:57;;;;;;;7.65;2.50;;;;;;;16.56;68.16;100131.69;10424903;28;20150;-66
2021/08/22 21:45:59;;;;;;;4.90;2.35;;;;;;;16.48;68.06;100134.13;10443692;28;20084;-66
2021/08/22 21:51:01;;;;;;;4.15;2.50;;;;;;;16.35;68.34;100136.88;10443752;28;20044;-66
2021/08/22 21:56:03;;;;;;;6.95;2.50;;;;;;;16.24;68.44;100136.91;10448137;28;20053;-66
2021/08/22 22:01:05;;;;;;;6.22;2.38;;;;;;;16.14;68.73;100149.97;10451250;28;20099;-66
2021/08/22 22:06:08;;;;;;;7.85;2.72;;;;;;;16.27;68.76;100159.53;10449993;28;20508;-66
2021/08/22 22:11:09;;;;;;;4.70;2.42;;;;;;;16.44;68.04;100159.09;10465039;28;20064;-66
2021/08/22 22:16:13;;;;;;;4.68;2.70;;;;;;;16.41;67.74;100154.84;10450277;28;20084;-66
2021/08/22 22:21:15;;;;;;;5.55;2.38;;;;;;;16.35;68.05;100155.34;10448309;28;20048;-66
2021/08/22 22:26:16;;;;;;;6.35;2.67;;;;;;;16.20;68.14;100146.84;10465970;28;20083;-66
2021/08/22 22:31:18;;;;;;;5.75;2.40;;;;;;;16.05;68.41;100142.78;10440858;28;20132;-66
2021/08/22 22:36:21;;;;;;;7.22;2.60;;;;;;;15.98;68.65;100156.56;10429205;28;20509;-66
2021/08/22 22:41:23;;;;;;;4.63;2.40;;;;;;;15.88;68.83;100158.25;10449506;28;20092;-66
2021/08/22 22:46:25;;;;;;;5.63;2.40;;;;;;;15.90;68.49;100156.31;10449656;28;20128;-66
2021/08/22 22:51:26;;;;;;;5.95;2.50;;;;;;;15.89;68.64;100152.03;10447984;28;20068;-66
2021/08/22 22:56:28;;;;;;;4.55;2.85;;;;;;;15.89;68.72;100157.31;10447339;28;20483;-66
2021/08/22 23:01:30;;;;;;;4.95;2.50;;;;;;;15.89;68.63;100152.88;10448030;28;20048;-66
2021/08/22 23:06:32;;;;;;;4.68;2.72;;;;;;;15.93;68.62;100150.81;10462401;28;20103;-66
2021/08/22 23:11:34;;;;;;;5.13;2.90;;;;;;;15.88;68.71;100155.59;10445709;28;20128;-66
2021/08/22 23:16:36;;;;;;;5.53;2.25;;;;;;;15.86;68.71;100150.47;10447472;28;20084;-66
2021/08/22 23:21:37;;;;;;;7.28;2.40;;;;;;;15.83;68.59;100152.50;10445971;28;20048;-66
2021/08/22 23:26:39;;;;;;;6.25;2.92;;;;;;;15.79;68.97;100156.34;10446698;28;20043;-66